createdAt,value
2023-01-31T04:49:47.722Z,529.83
2023-01-31T04:52:14.337Z,532.38
2023-01-31T04:54:41.936Z,530.15
2023-01-31T04:57:09.031Z,531.45
2023-01-31T04:59:36.133Z,532.88
2023-01-31T05:02:02.821Z,534.47
2023-01-31T05:04:29.429Z,531.35
2023-01-31T05:06:56.069Z,536.10
2023-01-31T05:09:22.759Z,536.20
2023-01-31T05:11:49.677Z,536.10
2023-01-31T05:14:16.801Z,539.72
2023-01-31T05:16:47.256Z,541.47
2023-01-31T05:19:15.032Z,545.60
2023-01-31T05:21:54.919Z,544.05
2023-01-31T05:24:22.622Z,545.58
2023-01-31T05:26:51.377Z,538.75
2023-01-31T05:29:19.001Z,545.38
2023-01-31T05:31:46.051Z,544.53
2023-01-31T05:34:15.218Z,543.20
2023-01-31T05:36:42.863Z,545.10
2023-01-31T05:39:09.749Z,544.13
2023-01-31T05:41:36.423Z,546.78
2023-01-31T05:44:03.271Z,545.60
2023-01-31T05:46:30.208Z,543.20
2023-01-31T05:48:56.945Z,546.13
2023-01-31T05:51:23.598Z,541.30
2023-01-31T05:53:50.387Z,547.22
2023-01-31T05:56:17.036Z,546.13
2023-01-31T05:58:43.663Z,544.92
2023-01-31T06:01:10.249Z,544.00
2023-01-31T06:03:36.862Z,543.58
2023-01-31T06:06:05.094Z,549.97
2023-01-31T06:08:32.154Z,546.90
2023-01-31T06:11:02.311Z,550.75
2023-01-31T06:13:28.968Z,547.55
2023-01-31T06:16:08.132Z,549.70
2023-01-31T06:18:35.032Z,541.00
2023-01-31T06:21:01.767Z,534.95
2023-01-31T06:23:28.405Z,537.13
2023-01-31T06:25:55.701Z,535.83
2023-01-31T06:28:23.169Z,533.13
2023-01-31T06:30:50.023Z,533.07
2023-01-31T06:33:17.134Z,536.60
2023-01-31T06:35:43.868Z,533.10
2023-01-31T06:38:12.492Z,534.33
2023-01-31T06:40:39.227Z,535.77
2023-01-31T06:43:05.833Z,534.38
2023-01-31T06:45:33.014Z,532.30
2023-01-31T06:48:00.007Z,530.08
2023-01-31T06:50:26.669Z,536.00
2023-01-31T06:52:53.348Z,534.70
2023-01-31T06:55:20.348Z,534.08
2023-01-31T06:57:48.653Z,527.80
2023-01-31T07:00:16.030Z,529.05
2023-01-31T07:02:42.694Z,526.95
2023-01-31T07:05:09.622Z,531.30
2023-01-31T07:07:36.206Z,530.53
2023-01-31T07:10:02.912Z,525.55
2023-01-31T07:12:30.257Z,530.75
2023-01-31T07:14:56.963Z,528.23
2023-01-31T07:17:23.735Z,529.25
2023-01-31T07:19:50.378Z,525.47
2023-01-31T07:22:16.987Z,531.50
2023-01-31T07:24:43.641Z,530.40
2023-01-31T07:27:14.033Z,525.83
2023-01-31T07:29:40.815Z,519.97
2023-01-31T07:32:07.489Z,508.25
2023-01-31T07:34:34.176Z,517.97
2023-01-31T07:37:01.237Z,503.80
2023-01-31T07:39:28.732Z,507.90
2023-01-31T07:41:55.585Z,515.35
2023-01-31T07:44:22.263Z,509.17
2023-01-31T07:46:48.860Z,517.45
2023-01-31T07:49:15.520Z,525.47
2023-01-31T07:51:42.722Z,523.63
2023-01-31T07:54:11.477Z,514.40
2023-01-31T07:56:38.340Z,511.63
2023-01-31T07:59:05.250Z,510.97
2023-01-31T08:01:50.943Z,516.92
2023-01-31T08:04:22.120Z,519.78
2023-01-31T08:06:51.085Z,523.72
2023-01-31T08:09:17.794Z,529.80
2023-01-31T08:11:44.435Z,531.88
2023-01-31T08:14:11.085Z,531.53
2023-01-31T08:16:38.592Z,536.28
2023-01-31T08:19:05.481Z,538.08
2023-01-31T08:21:32.094Z,533.13
2023-01-31T08:23:58.762Z,537.85
2023-01-31T08:26:25.764Z,538.95
2023-01-31T08:28:54.053Z,541.10
2023-01-31T08:31:23.859Z,544.40
2023-01-31T08:33:52.964Z,547.40
2023-01-31T08:36:24.572Z,549.42
2023-01-31T08:38:51.998Z,547.03
2023-01-31T08:41:20.354Z,548.97
2023-01-31T08:43:58.073Z,550.55
2023-01-31T08:46:27.420Z,569.88
2023-01-31T08:48:54.452Z,564.80
2023-01-31T08:51:21.787Z,570.35
2023-01-31T08:53:48.527Z,577.72
2023-01-31T08:56:15.862Z,575.83
2023-01-31T08:58:44.783Z,581.78
2023-01-31T09:01:14.800Z,570.30
2023-01-31T09:03:44.720Z,570.10
2023-01-31T09:06:19.409Z,576.23
2023-01-31T09:08:46.356Z,580.15
2023-01-31T09:11:19.048Z,574.17
2023-01-31T09:13:47.487Z,588.00
2023-01-31T09:16:15.148Z,594.03
2023-01-31T09:18:42.685Z,595.60
2023-01-31T09:21:20.219Z,611.25
2023-01-31T09:23:48.159Z,629.97
2023-01-31T09:26:16.401Z,630.63
2023-01-31T09:28:43.367Z,636.60
2023-01-31T09:31:13.309Z,642.47
2023-01-31T09:33:40.385Z,634.95
2023-01-31T09:36:09.508Z,653.38
2023-01-31T09:38:36.903Z,656.47
2023-01-31T09:41:18.625Z,662.27
2023-01-31T09:43:50.786Z,672.65
2023-01-31T09:46:21.167Z,699.03
2023-01-31T09:48:51.072Z,729.50
2023-01-31T09:51:19.468Z,759.78
2023-01-31T09:53:46.604Z,779.55
2023-01-31T09:56:29.844Z,800.50
2023-01-31T09:59:19.249Z,823.05
2023-01-31T10:02:05.650Z,838.60
2023-01-31T10:04:59.396Z,864.63
2023-01-31T10:07:54.189Z,892.80
2023-01-31T10:10:28.940Z,929.00
2023-01-31T10:13:00.301Z,964.85
2023-01-31T10:15:44.662Z,1004.40
2023-01-31T10:18:29.279Z,1030.55
2023-01-31T10:21:42.198Z,1046.28
2023-01-31T10:24:32.585Z,1059.03
2023-01-31T10:27:06.243Z,1057.80
2023-01-31T10:29:40.728Z,1073.93
2023-01-31T10:32:27.089Z,1072.13
2023-01-31T10:35:05.437Z,1074.00
2023-01-31T10:37:45.978Z,1080.82
2023-01-31T10:40:26.326Z,1065.20
2023-01-31T10:43:00.941Z,1062.18
2023-01-31T10:45:33.542Z,1051.00
2023-01-31T10:48:22.142Z,1044.13
2023-01-31T10:51:08.029Z,1031.30
2023-01-31T10:53:39.872Z,1000.92
2023-01-31T10:56:35.857Z,972.20
2023-01-31T10:59:12.744Z,911.17
2023-01-31T11:01:39.456Z,855.47
2023-01-31T11:04:31.659Z,819.20
2023-01-31T11:07:00.753Z,780.53
2023-01-31T11:09:33.809Z,773.13
2023-01-31T11:12:03.050Z,766.10
2023-01-31T11:14:31.340Z,759.85
2023-01-31T11:17:06.366Z,746.50
2023-01-31T11:19:40.912Z,744.67
2023-01-31T11:22:09.264Z,734.47
2023-01-31T11:24:41.126Z,737.65
2023-01-31T11:27:10.980Z,726.38
2023-01-31T11:29:43.301Z,731.40
2023-01-31T11:32:21.255Z,716.20
2023-01-31T11:35:32.540Z,706.92
2023-01-31T11:38:01.817Z,701.38
2023-01-31T11:40:30.476Z,713.72
2023-01-31T11:43:19.085Z,723.83
2023-01-31T11:45:54.179Z,759.03
2023-01-31T11:48:41.970Z,782.70
2023-01-31T11:51:09.973Z,813.67
2023-01-31T11:53:45.316Z,831.78
2023-01-31T11:56:18.781Z,862.00
2023-01-31T11:58:49.673Z,885.92
2023-01-31T12:01:20.753Z,895.90
2023-01-31T12:04:04.546Z,887.05
2023-01-31T12:06:38.863Z,883.95
2023-01-31T12:09:20.682Z,882.43
2023-01-31T12:12:02.685Z,893.30
2023-01-31T12:14:42.165Z,909.80
2023-01-31T12:17:14.283Z,913.57
2023-01-31T12:19:58.744Z,904.10
2023-01-31T12:22:43.661Z,891.63
2023-01-31T12:25:19.602Z,890.47
2023-01-31T12:27:49.105Z,881.35
2023-01-31T12:30:27.215Z,874.55
2023-01-31T12:33:16.959Z,847.13
2023-01-31T12:35:54.359Z,836.60
2023-01-31T12:38:49.347Z,835.13
2023-01-31T12:41:18.992Z,841.22
2023-01-31T12:43:48.679Z,829.15
2023-01-31T12:46:23.396Z,833.35
2023-01-31T12:49:09.193Z,829.90
2023-01-31T12:52:13.590Z,830.33
2023-01-31T12:55:09.550Z,837.38
2023-01-31T12:58:21.008Z,833.75
2023-01-31T13:00:55.117Z,825.90
2023-01-31T13:03:27.775Z,814.20
2023-01-31T13:05:59.092Z,788.83
2023-01-31T13:08:31.190Z,768.33
2023-01-31T13:11:12.797Z,780.60
2023-01-31T13:13:50.482Z,770.45
2023-01-31T13:16:22.706Z,777.97
2023-01-31T13:18:51.749Z,751.50
2023-01-31T13:21:22.753Z,760.97
2023-01-31T13:23:53.900Z,747.75
2023-01-31T13:26:26.491Z,744.22
2023-01-31T13:29:07.263Z,741.85
2023-01-31T13:31:46.245Z,733.85
2023-01-31T13:34:37.761Z,741.58
2023-01-31T13:37:20.893Z,750.58
2023-01-31T13:39:52.182Z,747.85
2023-01-31T13:42:19.101Z,760.30
2023-01-31T13:44:47.379Z,736.95
2023-01-31T13:47:25.374Z,739.17
2023-01-31T13:50:08.061Z,740.10
2023-01-31T13:52:51.395Z,741.75
2023-01-31T13:55:34.010Z,725.85
2023-01-31T13:58:25.392Z,732.63
2023-01-31T14:01:07.332Z,721.13
2023-01-31T14:04:10.904Z,720.22
2023-01-31T14:06:53.300Z,714.17
2023-01-31T14:09:31.747Z,729.45
2023-01-31T14:12:01.024Z,723.53
2023-01-31T14:14:41.039Z,728.83
2023-01-31T14:17:26.378Z,727.40
2023-01-31T14:19:53.118Z,727.28
2023-01-31T14:22:49.012Z,711.42
2023-01-31T14:25:15.907Z,707.13
2023-01-31T14:27:46.421Z,681.05
2023-01-31T14:30:41.749Z,685.35
2023-01-31T14:33:11.423Z,665.13
2023-01-31T14:36:02.352Z,667.53
2023-01-31T14:38:34.726Z,668.30
2023-01-31T14:41:27.868Z,668.60
2023-01-31T14:44:14.992Z,660.47
2023-01-31T14:47:25.898Z,662.22
2023-01-31T14:50:03.689Z,670.80
2023-01-31T14:53:06.439Z,675.28
2023-01-31T14:55:51.636Z,664.38
2023-01-31T14:58:23.895Z,669.25
2023-01-31T15:01:01.905Z,674.28
2023-01-31T15:03:34.673Z,666.35
2023-01-31T15:06:11.645Z,665.05
2023-01-31T15:08:49.895Z,664.70
2023-01-31T15:11:41.924Z,668.53
2023-01-31T15:14:35.600Z,680.92
2023-01-31T15:17:27.593Z,670.47
2023-01-31T15:20:14.360Z,670.20
2023-01-31T15:22:42.505Z,672.60
2023-01-31T15:25:21.954Z,674.40
2023-01-31T15:27:49.471Z,665.92
2023-01-31T15:30:21.349Z,671.92
2023-01-31T15:32:56.625Z,668.40
2023-01-31T15:35:34.958Z,665.47
2023-01-31T15:38:37.681Z,667.08
2023-01-31T15:41:26.324Z,663.97
2023-01-31T15:44:10.119Z,662.88
2023-01-31T15:46:36.783Z,663.38
2023-01-31T15:49:37.725Z,656.28
2023-01-31T15:52:08.319Z,653.35
2023-01-31T15:54:35.418Z,649.03
2023-01-31T15:57:03.359Z,643.97
2023-01-31T15:59:33.092Z,646.43
2023-01-31T16:02:04.622Z,646.25
2023-01-31T16:04:31.377Z,653.30
2023-01-31T16:06:59.163Z,653.53
2023-01-31T16:09:33.336Z,660.30
2023-01-31T16:12:01.860Z,662.65
2023-01-31T16:14:29.184Z,663.50
2023-01-31T16:16:57.998Z,674.47
2023-01-31T16:19:29.265Z,680.97
2023-01-31T16:21:56.963Z,674.80
2023-01-31T16:24:24.645Z,675.22
2023-01-31T16:27:09.264Z,667.53
2023-01-31T16:29:40.325Z,664.03
2023-01-31T16:32:19.409Z,670.15
2023-01-31T16:34:56.515Z,658.20
2023-01-31T16:37:46.497Z,657.88
2023-01-31T16:40:31.086Z,666.50
2023-01-31T16:43:27.596Z,673.42
2023-01-31T16:45:58.720Z,663.22
2023-01-31T16:48:28.949Z,664.80
2023-01-31T16:50:58.690Z,650.33
2023-01-31T16:53:32.074Z,642.42
2023-01-31T16:56:13.832Z,636.20
2023-01-31T16:58:49.765Z,634.00
2023-01-31T17:01:19.432Z,630.83
2023-01-31T17:03:59.793Z,633.03
2023-01-31T17:06:26.749Z,624.17
2023-01-31T17:08:53.506Z,630.63
2023-01-31T17:11:39.607Z,633.45
2023-01-31T17:14:07.953Z,641.27
2023-01-31T17:16:34.585Z,643.97
2023-01-31T17:19:01.177Z,629.47
2023-01-31T17:21:29.078Z,638.40
2023-01-31T17:23:55.726Z,615.70
2023-01-31T17:26:23.380Z,627.42
2023-01-31T17:29:00.957Z,632.13
2023-01-31T17:31:29.455Z,631.67
2023-01-31T17:33:56.200Z,639.53
2023-01-31T17:36:22.867Z,631.63
2023-01-31T17:38:51.289Z,640.10
2023-01-31T17:41:20.363Z,636.47
2023-01-31T17:43:46.972Z,641.47
2023-01-31T17:46:18.536Z,638.75
2023-01-31T17:48:45.215Z,653.42
2023-01-31T17:51:12.299Z,650.10
2023-01-31T17:53:49.390Z,646.42
2023-01-31T17:56:18.465Z,654.50
2023-01-31T17:58:45.345Z,654.65
2023-01-31T18:01:14.053Z,649.67
2023-01-31T18:03:41.334Z,643.78
2023-01-31T18:06:09.602Z,645.97
2023-01-31T18:08:36.671Z,643.58
2023-01-31T18:11:14.843Z,651.20
2023-01-31T18:13:42.439Z,645.35
2023-01-31T18:16:15.170Z,645.43
2023-01-31T18:18:43.859Z,651.33
2023-01-31T18:21:18.576Z,662.00
2023-01-31T18:23:50.963Z,665.95
2023-01-31T18:26:17.785Z,662.17
2023-01-31T18:28:44.665Z,657.90
2023-01-31T18:31:13.775Z,661.97
2023-01-31T18:33:42.151Z,654.50
2023-01-31T18:36:13.405Z,647.90
2023-01-31T18:38:42.735Z,649.78
2023-01-31T18:41:14.235Z,651.77
2023-01-31T18:43:42.172Z,645.72
2023-01-31T18:46:10.346Z,639.78
2023-01-31T18:48:38.925Z,646.15
2023-01-31T18:51:08.470Z,645.60
2023-01-31T18:53:37.210Z,651.75
2023-01-31T18:56:06.630Z,653.65
2023-01-31T18:58:34.932Z,656.03
2023-01-31T19:01:15.635Z,657.17
2023-01-31T19:03:43.569Z,655.22
2023-01-31T19:06:13.281Z,656.35
2023-01-31T19:08:40.334Z,656.70
2023-01-31T19:11:10.985Z,664.15
2023-01-31T19:13:38.129Z,658.15
2023-01-31T19:16:07.730Z,666.53
2023-01-31T19:18:35.322Z,662.70
2023-01-31T19:21:02.238Z,658.30
2023-01-31T19:23:29.254Z,667.08
2023-01-31T19:25:55.910Z,661.25
2023-01-31T19:28:26.873Z,642.60
2023-01-31T19:30:53.578Z,642.53
2023-01-31T19:33:20.392Z,651.28
2023-01-31T19:35:47.115Z,638.65
2023-01-31T19:38:13.949Z,650.63
2023-01-31T19:40:42.425Z,639.05
2023-01-31T19:43:09.266Z,633.38
2023-01-31T19:45:36.081Z,627.97
2023-01-31T19:48:02.760Z,624.78
2023-01-31T19:50:29.720Z,645.10
2023-01-31T19:52:56.339Z,633.43
2023-01-31T19:55:23.638Z,617.15
2023-01-31T19:57:50.459Z,626.72
2023-01-31T20:00:17.372Z,640.75
2023-01-31T20:02:44.144Z,640.97
2023-01-31T20:05:15.478Z,650.95
2023-01-31T20:07:45.229Z,640.72
2023-01-31T20:10:12.836Z,643.33
2023-01-31T20:12:39.722Z,649.20
2023-01-31T20:15:07.784Z,638.50
2023-01-31T20:17:34.696Z,632.45
2023-01-31T20:20:01.435Z,629.45
2023-01-31T20:22:29.018Z,633.55
2023-01-31T20:24:57.047Z,629.05
2023-01-31T20:27:25.344Z,635.83
2023-01-31T20:29:52.020Z,647.92
2023-01-31T20:32:18.971Z,640.28
2023-01-31T20:34:45.666Z,637.05
2023-01-31T20:37:12.398Z,641.25
2023-01-31T20:39:39.054Z,634.20
2023-01-31T20:42:05.740Z,621.70
2023-01-31T20:44:32.451Z,619.85
2023-01-31T20:46:59.188Z,640.67
2023-01-31T20:49:27.169Z,614.22
2023-01-31T20:51:54.059Z,614.35
2023-01-31T20:54:21.130Z,608.63
2023-01-31T20:56:47.969Z,610.10
2023-01-31T20:59:14.700Z,629.83
2023-01-31T21:01:43.105Z,632.83
2023-01-31T21:04:09.875Z,611.90
2023-01-31T21:06:36.536Z,617.23
2023-01-31T21:09:03.222Z,618.33
2023-01-31T21:11:29.842Z,640.22
2023-01-31T21:13:56.413Z,634.97
2023-01-31T21:16:23.314Z,629.20
2023-01-31T21:18:50.133Z,628.40
2023-01-31T21:21:23.229Z,624.53
2023-01-31T21:23:52.282Z,612.85
2023-01-31T21:26:20.628Z,620.30
2023-01-31T21:28:47.927Z,632.25
2023-01-31T21:31:17.197Z,635.58
2023-01-31T21:33:48.884Z,634.63
2023-01-31T21:36:18.412Z,640.80
2023-01-31T21:38:45.749Z,648.15
2023-01-31T21:41:31.824Z,641.65
2023-01-31T21:43:58.836Z,640.00
2023-01-31T21:46:25.919Z,632.50
2023-01-31T21:48:53.230Z,629.30
2023-01-31T21:51:22.278Z,626.03
2023-01-31T21:53:48.869Z,612.25
2023-01-31T21:56:20.789Z,634.30
2023-01-31T21:58:47.487Z,633.17
2023-01-31T22:01:25.495Z,636.15
2023-01-31T22:03:53.657Z,635.88
2023-01-31T22:06:25.888Z,634.58
2023-01-31T22:09:02.192Z,634.45
2023-01-31T22:11:33.011Z,635.30
2023-01-31T22:14:01.526Z,645.67
2023-01-31T22:16:28.191Z,629.97
2023-01-31T22:18:55.049Z,642.10
2023-01-31T22:21:24.888Z,637.65
2023-01-31T22:23:54.285Z,646.97
2023-01-31T22:26:24.036Z,649.28
2023-01-31T22:28:52.193Z,648.33
2023-01-31T22:31:19.027Z,646.70
2023-01-31T22:33:46.273Z,654.05
2023-01-31T22:36:14.268Z,647.45
2023-01-31T22:38:41.833Z,642.75
2023-01-31T22:41:19.989Z,643.33
2023-01-31T22:43:49.214Z,652.25
2023-01-31T22:46:18.490Z,647.10
2023-01-31T22:48:46.389Z,653.33
2023-01-31T22:51:15.140Z,645.28
2023-01-31T22:53:42.434Z,650.15
2023-01-31T22:56:13.028Z,630.25
2023-01-31T22:58:39.800Z,640.70
2023-01-31T23:01:15.981Z,650.60
2023-01-31T23:03:43.260Z,638.38
2023-01-31T23:06:11.086Z,635.20
2023-01-31T23:08:38.348Z,637.60
2023-01-31T23:11:07.565Z,639.05
2023-01-31T23:13:35.665Z,635.45
2023-01-31T23:16:03.139Z,639.72
2023-01-31T23:18:30.087Z,634.80
2023-01-31T23:21:15.694Z,615.25
2023-01-31T23:23:45.116Z,617.20
2023-01-31T23:26:12.561Z,611.83
2023-01-31T23:28:39.551Z,617.80
2023-01-31T23:31:06.760Z,628.78
2023-01-31T23:33:33.434Z,626.78
2023-01-31T23:36:00.147Z,607.38
2023-01-31T23:38:26.781Z,607.30
2023-01-31T23:40:54.130Z,607.85
2023-01-31T23:43:21.537Z,606.45
2023-01-31T23:45:48.267Z,607.53
2023-01-31T23:48:15.120Z,604.45
2023-01-31T23:50:41.731Z,599.25
2023-01-31T23:53:08.427Z,603.63
2023-01-31T23:55:35.280Z,592.53
2023-01-31T23:58:01.930Z,593.75
